Tiempo atmosférico en la estación meteorológica de Benamejí, Córdoba (465 m.)



Fecha
DESCASC
Temp. máxima en grados centígrados (hora)
DESCASC
Temp. mínima en grados centígrados (hora)
DESCASC
Temp. media en grados centígrados
DESCASC
Racha de viento máxima en m/sg (hora)
DESCASC
Velocidad máxima media en intervalos de 10 minutos(hora)
DESCASC
Precipitaciones diarias en mm
DESCASC
Precipitaciones de 00:00 a 06:00 en mm
DESCASC
Precipitaciones de 06:00 a 12:00 en mm
DESCASC
Precipitaciones de 12:00 a 18:00 en mm
DESCASC
Precipitaciones de 18:00 a 24:00 en mm
DESCASC
06-07-2020 39.1 (17:30) 20.2 (07:20) 29.6 9.44 (22:50) 6.39 (22:40) 0 0 0 0 0
05-07-2020 34.5 (16:40) 20.4 (07:20) 27.4 14.17 (15:00) 9.72 (17:00) 0 0 0 0 0
04-07-2020 34.3 (16:20) 19.5 (07:10) 26.9 9.72 (19:40) 6.94 (20:10) 0 0 0 0 0
03-07-2020 34.2 (16:50) 19.9 (07:10) 27.1 7.78 (16:00) 5.56 (23:59) 0 0 0 0 0
02-07-2020 34.5 (17:10) 19.7 (00:00) 27.1 10 (17:40) 6.11 (21:40) 0 0 0 0 0
01-07-2020 35.5 (17:20) 19.8 (00:00) 27.6 8.06 (17:50) 4.44 (21:00) 0 0 0 0 0
30-06-2020 36.7 (17:40) 21.1 (00:00) 28.9 10.28 (15:40) 6.39 (16:00) 0 0 0 0 0
29-06-2020 37 (16:20) 21 (00:00) 29 10 (19:00) 6.94 (20:00) 0 0 0 0 0
28-06-2020 36.6 (17:50) 20.5 (00:00) 28.5 9.17 (23:59) 6.67 (23:59) 0 0 0 0 0
27-06-2020 32.3 (18:30) 17.6 (00:00) 24.9 8.06 (15:10) 4.44 (17:00) 0 0 0 0 0
26-06-2020 30.1 (17:50) 17.1 (00:00) 23.6 9.72 (19:40) 5.83 (19:40) 0 0 0 0 0
25-06-2020 33.9 (16:40) 18.3 (00:00) 26.1 8.89 (21:00) 5.56 (20:40) 0 0 0 0 0
24-06-2020 33.7 (16:00) 19.8 (00:00) 26.8 9.17 (16:20) 6.39 (16:20) 0 0 0 0 0
23-06-2020 35.5 (14:50) 21.3 (00:00) 28.4 14.17 (17:20) 10.56 (17:20) 0 0 0 0 0
22-06-2020 34.8 (16:40) 19.9 (00:00) 27.3 14.44 (17:00) 9.44 (17:50) 0 0 0 0 0
21-06-2020 35.8 (18:10) 18.7 (00:00) 27.3 8.89 (19:30) 4.17 (16:20) 0 0 0 0 0
20-06-2020 33.6 (19:20) 16.9 (00:00) 25.2 8.06 (16:40) 4.72 (16:00) 0 0 0 0 0
19-06-2020 29.7 (18:00) 15.2 (00:00) 22.5 7.5 (17:00) 4.17 (21:10) 0 0 0 0 0
18-06-2020 29.9 (16:40) 16.1 (00:00) 23 9.72 (18:40) 6.11 (20:40) 0 0 0 0 0
17-06-2020 28.5 (18:30) 15.8 (00:00) 22.2 10 (15:20) 5 (19:50) 0 0 0 0 0
16-06-2020 27.9 (17:40) 15.9 (00:00) 21.9 12.78 (17:20) 7.22 (16:00) 0 0 0 0 0
15-06-2020 28.5 (17:50) 14.3 (00:00) 21.4 8.33 (15:20) 4.44 (18:50) 0 0 0 0 0
14-06-2020 26.9 (17:40) 14.3 (00:00) 20.6 10.28 (20:30) 6.11 (20:30) 0 0 0 0 0
13-06-2020 24.6 (17:20) 12 (00:00) 18.3 9.17 (16:20) 5.28 (00:10) 0 0 0 0 0
12-06-2020 20.5 (19:30) 13.8 (00:00) 17.2 12.78 (00:20) 8.89 (00:50) 0 0 0 0 0
11-06-2020 24.3 (15:50) 13.4 (00:00) 18.8 13.89 (19:30) 9.72 (20:00) 0 0 0 0 0
10-06-2020 28.9 (17:20) 14.4 (00:00) 21.6 10 (20:40) 6.67 (20:40) 0 0 0 0 0
09-06-2020 27.2 (17:30) 13.4 (00:00) 20.3 8.61 (18:40) 5.28 (18:40) 0 0 0 0 0

Gráficas

Temp. máximas Temp. mínimas Temp. medias Precipitaciones Rachas de viento máximas Velocidades máximas media en intervalos de 10 minutos

Datos horarios

Fecha y hora oficial Temperatura (ºC) Velocidad del viento (km/h) Dirección del viento Racha (km/h) Dirección de racha Precipitación (mm) Presión (hPa) Tendencia (hPa) Humedad (%)
2020-07-08 23:00:00 26.5 6 Oeste 33 Sur 0 -- -- 16
2020-07-08 22:00:00 28.5 24 Sur 35 Sur 0 -- -- 13
2020-07-08 21:00:00 30.9 24 Sur 32 Sur 0 -- -- 15
2020-07-08 20:00:00 32.7 19 Sur 30 Sur 0 -- -- 14
2020-07-08 19:00:00 32.7 20 Sur 36 Sur 0 -- -- 14
2020-07-08 18:00:00 33.3 27 Sur 43 Sur 0 -- -- 13
2020-07-08 17:00:00 34 27 Sur 44 Sur 0 -- -- 12
2020-07-08 16:00:00 34.7 31 Sur 46 Sur 0 -- -- 11
2020-07-08 15:00:00 34.8 27 Sur 45 Sur 0 -- -- 11
2020-07-08 14:00:00 35.4 30 Sur 44 Sur 0 -- -- 10
2020-07-08 13:00:00 35.6 22 Sur 41 Sudeste 0 -- -- 8
2020-07-08 12:00:00 34 23 Sur 38 Sur 0 -- -- 9
2020-07-08 11:00:00 33 24 Sur 33 Sur 0 -- -- 11
2020-07-08 10:00:00 31.2 6 Sur 15 Sudoeste 0 -- -- 18
2020-07-08 09:00:00 26.7 3 Sudoeste 15 Noroeste 0 -- -- 27
2020-07-08 08:00:00 26.6 8 Este 19 Este 0 -- -- 23
2020-07-08 07:00:00 25.7 9 Este 24 Sudoeste 0 -- -- 25
2020-07-08 06:00:00 26.7 7 Oeste 27 Sudeste 0 -- -- 23
2020-07-08 05:00:00 28 16 Sudoeste 38 Sur 0 -- -- 19
2020-07-08 04:00:00 27.4 5 Nordeste 13 Nordeste 0 -- -- 22
2020-07-08 03:00:00 27.7 7 Nordeste 14 Sur 0 -- -- 22
2020-07-08 02:00:00 28.9 10 Sudeste 23 Sur 0 -- -- 21
2020-07-08 01:00:00 29.4 15 Sur 22 Sur 0 -- -- 20
2020-07-08 00:00:00 29.9 11 Sur 17 Sur 0 -- -- 19
2020-07-07 23:00:00 31.7 9 Sur 13 Sur 0 -- -- 15
2020-07-07 22:00:00 34.2 5 Sudoeste 10 Oeste 0 -- -- 10
2020-07-07 21:00:00 36.5 5 Oeste 16 Noroeste 0 -- -- 9
2020-07-07 20:00:00 38.5 9 Noroeste 21 Noroeste 0 -- -- 7
2020-07-07 19:00:00 39.5 10 Noroeste 29 Oeste 0 -- -- 6
2020-07-07 18:00:00 40 13 Noroeste 29 Oeste 0 -- -- 6
2020-07-07 17:00:00 40 18 Oeste 33 Noroeste 0 -- -- 5
2020-07-07 16:00:00 40.1 14 Oeste 24 Oeste 0 -- -- 7
2020-07-07 15:00:00 39.4 14 Oeste 27 Oeste 0 -- -- 5
2020-07-07 14:00:00 38.3 11 Sudoeste 18 Sudoeste 0 -- -- 8
2020-07-07 13:00:00 37.1 5 Sudeste 14 Sudoeste 0 -- -- 10
2020-07-07 12:00:00 34.3 3 Sur 9 Sur 0 -- -- 15
2020-07-07 11:00:00 31.2 5 Nordeste 9 Nordeste 0 -- -- 26
2020-07-07 10:00:00 28.8 3 Nordeste 7 Sur 0 -- -- 30
2020-07-07 09:00:00 26 4 Sudeste 8 Sudeste 0 -- -- 31
2020-07-07 08:00:00 23.6 3 Sudeste 9 Sudeste 0 -- -- 34
2020-07-07 07:00:00 22.8 4 Sur 9 Sudeste 0 -- -- 33
2020-07-07 06:00:00 23.6 6 Sudeste 19 Sur 0 -- -- 30
2020-07-07 05:00:00 24 14 Sur 20 Sur 0 -- -- 28
2020-07-07 04:00:00 24.6 5 Sudeste 8 Sudeste 0 -- -- 28
2020-07-07 03:00:00 24.7 6 Sudeste 16 Sur 0 -- -- 27
2020-07-07 02:00:00 25.6 15 Sur 22 Sur 0 -- -- 25
2020-07-07 01:00:00 26.6 14 Sur 19 Sur 0 -- -- 23
2020-07-07 00:00:00 27.9 15 Sur 19 Sur 0 -- -- 24
2020-07-06 23:00:00 30 16 Sudoeste 34 Sudoeste 0 -- -- 19
2020-07-06 22:00:00 31 20 Sur 26 Sur 0 -- -- 18
2020-07-06 21:00:00 35 18 Sudoeste 24 Sudoeste 0 -- -- 13
2020-07-06 20:00:00 38.1 10 Sudoeste 18 Oeste 0 -- -- 6
2020-07-06 19:00:00 38.6 9 Oeste 29 Oeste 0 -- -- 6
2020-07-06 18:00:00 38.7 9 Noroeste 22 Oeste 0 -- -- 7
2020-07-06 17:00:00 38.4 12 Noroeste 26 Noroeste 0 -- -- 7
2020-07-06 16:00:00 37.8 12 Noroeste 25 Noroeste 0 -- -- 8
2020-07-06 15:00:00 37.6 9 Sudoeste 21 Oeste 0 -- -- 8
2020-07-06 14:00:00 36.5 9 Noroeste 16 Noroeste 0 -- -- 10
2020-07-06 13:00:00 34.8 5 Nordeste 10 Este 0 -- -- 9
2020-07-06 12:00:00 32.7 3 Nordeste 9 Nordeste 0 -- -- 13
2020-07-06 11:00:00 30 3 Nordeste 8 Norte 0 -- -- 15
2020-07-06 10:00:00 27.3 3 Nordeste 5 Nordeste 0 -- -- 27
2020-07-06 09:00:00 23.7 4 Nordeste 8 Este 0 -- -- 32
2020-07-06 08:00:00 21.5 6 Este 12 Este 0 -- -- 36
2020-07-06 07:00:00 20.4 6 Este 11 Este 0 -- -- 37
2020-07-06 06:00:00 20.6 4 Sudeste 14 Sur 0 -- -- 35
2020-07-06 05:00:00 21.2 9 Sur 15 Sur 0 -- -- 34
2020-07-06 04:00:00 21.7 13 Sur 16 Sur 0 -- -- 33
2020-07-06 03:00:00 22.4 8 Sur 17 Sur 0 -- -- 31
2020-07-06 02:00:00 23 12 Sur 18 Sur 0 -- -- 28
2020-07-06 01:00:00 23.6 11 Sur 25 Sur 0 -- -- 25
2020-07-06 00:00:00 24.6 18 Sur 24 Sur 0 -- -- 20
2020-07-05 23:00:00 26.1 17 Sur 22 Sur 0 -- -- 22
2020-07-05 22:00:00 27.6 14 Sur 25 Sur 0 -- -- 21
2020-07-05 21:00:00 30 19 Sur 35 Sudoeste 0 -- -- 17
2020-07-05 20:00:00 32.3 22 Sudoeste 32 Sudoeste 0 -- -- 17
2020-07-05 19:00:00 34.2 24 Sur 41 Sur 0 -- -- 12
2020-07-05 18:00:00 34.5 28 Sur 48 Sur 0 -- -- 9
2020-07-05 17:00:00 34.3 35 Sur 51 Sur 0 -- -- 11
2020-07-05 16:00:00 34.4 31 Sur 48 Sur 0 -- -- 13
2020-07-05 15:00:00 33.9 34 Sur 51 Sur 0 -- -- 15
2020-07-05 14:00:00 33.8 30 Sur 44 Sur 0 -- -- 16
2020-07-05 13:00:00 33.3 19 Sur 29 Sudoeste 0 -- -- 18
2020-07-05 12:00:00 31.6 6 Sudoeste 14 Sur 0 -- -- 19
2020-07-05 11:00:00 29.9 2 Nordeste 8 Sur 0 -- -- 21
2020-07-05 10:00:00 27.2 6 Sur 12 Sur 0 -- -- 29
2020-07-05 09:00:00 24.3 5 Sur 8 Sur 0 -- -- 38
2020-07-05 08:00:00 21.7 3 Sur 9 Sudoeste 0 -- -- 44
2020-07-05 07:00:00 21.4 6 Este 8 Este 0 -- -- 44
2020-07-05 06:00:00 21.2 2 Norte 8 Nordeste 0 -- -- 46
2020-07-05 05:00:00 22.5 6 Este 9 Sur 0 -- -- 39
2020-07-05 04:00:00 22.5 3 Este 10 Sur 0 -- -- 42
2020-07-05 03:00:00 22.7 6 Sudeste 15 Sur 0 -- -- 43
2020-07-05 02:00:00 22.9 11 Sur 22 Sur 0 -- -- 47
2020-07-05 01:00:00 23.4 17 Sur 24 Sur 0 -- -- 44
2020-07-05 00:00:00 24 16 Sur 24 Sur 0 -- -- 44
2020-07-04 23:00:00 25.5 18 Sur 29 Sur 0 -- -- 39
2020-07-04 22:00:00 26.9 22 Sur 31 Sur 0 -- -- 37
2020-07-04 21:00:00 29 24 Sudoeste 33 Sur 0 -- -- 32
2020-07-04 20:00:00 31.1 24 Sudoeste 35 Sudoeste 0 -- -- 29
2020-07-04 19:00:00 32.8 22 Sudoeste 35 Sudoeste 0 -- -- 27
2020-07-04 18:00:00 34 16 Sudoeste 28 Sudoeste 0 -- -- 23
2020-07-04 17:00:00 34.2 9 Sudoeste 31 Sudoeste 0 -- -- 23
2020-07-04 16:00:00 34.1 11 Sudoeste 28 Sudoeste 0 -- -- 22
2020-07-04 15:00:00 32.8 15 Sudoeste 24 Sur 0 -- -- 26
2020-07-04 14:00:00 32.5 8 Sur 18 Sur 0 -- -- 24
2020-07-04 13:00:00 31.2 9 Sudoeste 18 Oeste 0 -- -- 26
2020-07-04 12:00:00 29.6 8 Sudoeste 16 Oeste 0 -- -- 30
2020-07-04 11:00:00 27.8 4 Sudoeste 8 Sur 0 -- -- 31
2020-07-04 10:00:00 26.1 3 Nordeste 9 Nordeste 0 -- -- 38
2020-07-04 09:00:00 22.7 6 Nordeste 10 Nordeste 0 -- -- 47
2020-07-04 08:00:00 20.8 4 Este 14 Sur 0 -- -- 64
2020-07-04 07:00:00 19.6 8 Sur 13 Sur 0 -- -- 70
2020-07-04 06:00:00 20.6 6 Sudeste 7 Sudeste 0 -- -- 59
2020-07-04 05:00:00 20.6 5 Sur 8 Sur 0 -- -- 63
2020-07-04 04:00:00 21.1 6 Sur 9 Sur 0 -- -- 60
2020-07-04 03:00:00 21.6 7 Sudoeste 12 Sudoeste 0 -- -- 59
2020-07-04 02:00:00 22.6 0 Calma 24 Sur 0 -- -- 55
2020-07-04 01:00:00 23.3 19 Sur 30 Sur 0 -- -- 52
2020-07-04 00:00:00 24.1 20 Sur 26 Sur 0 -- -- 47
2020-07-03 23:00:00 26.5 14 Sudoeste 18 Sudoeste 0 -- -- 14
2020-07-03 22:00:00 29.1 10 Oeste 21 Noroeste 0 -- -- 11
2020-07-03 21:00:00 31.9 13 Noroeste 25 Oeste 0 -- -- 10
2020-07-03 20:00:00 33.1 13 Noroeste 24 Oeste 0 -- -- 9
2020-07-03 19:00:00 33.5 14 Noroeste 27 Oeste 0 -- -- 9
2020-07-03 18:00:00 33.7 13 Noroeste 25 Noroeste 0 -- -- 9
2020-07-03 17:00:00 33.8 15 Noroeste 26 Noroeste 0 -- -- 8
2020-07-03 16:00:00 32.9 14 Noroeste 28 Noroeste 0 -- -- 10
2020-07-03 15:00:00 32.5 6 Oeste 23 Noroeste 0 -- -- 13
2020-07-03 14:00:00 31.3 7 Noroeste 19 Oeste 0 -- -- 13
2020-07-03 13:00:00 29.7 6 Oeste 16 Noroeste 0 -- -- 14
2020-07-03 12:00:00 28.4 8 Oeste 15 Oeste 0 -- -- 17
2020-07-03 11:00:00 26.7 3 Sudeste 7 Este 0 -- -- 27
2020-07-03 10:00:00 23.8 4 Nordeste 9 Norte 0 -- -- 34
2020-07-03 09:00:00 22.7 4 Nordeste 6 Norte 0 -- -- 37
2020-07-03 08:00:00 21.3 5 Este 9 Este 0 -- -- 40
2020-07-03 07:00:00 20 5 Nordeste 8 Este 0 -- -- 42
2020-07-03 06:00:00 20.7 0 Calma 5 Nordeste 0 -- -- 40
2020-07-03 05:00:00 21.2 2 Sudoeste 8 Sudeste 0 -- -- 39
2020-07-03 04:00:00 22.1 7 Sudeste 9 Sudeste 0 -- -- 35
2020-07-03 03:00:00 22.9 3 Norte 9 Sudoeste 0 -- -- 34
2020-07-03 02:00:00 22.9 6 Sur 12 Sur 0 -- -- 32
2020-07-03 01:00:00 24.5 8 Sudoeste 20 Sudoeste 0 -- -- 28
2020-07-03 00:00:00 26.1 15 Oeste 25 Oeste 0 -- -- 24
2020-07-02 23:00:00 27.5 17 Oeste 30 Oeste 0 -- -- 22
2020-07-02 22:00:00 29.1 18 Oeste 32 Sudoeste 0 -- -- 19
2020-07-02 21:00:00 32 11 Oeste 30 Oeste 0 -- -- 14
2020-07-02 20:00:00 32.9 16 Oeste 34 Noroeste 0 -- -- 10
2020-07-02 19:00:00 33.3 19 Noroeste 33 Oeste 0 -- -- 9
2020-07-02 18:00:00 34 19 Oeste 36 Oeste 0 -- -- 11
2020-07-02 17:00:00 34 15 Oeste 32 Oeste 0 -- -- 13
2020-07-02 16:00:00 33.1 15 Noroeste 30 Oeste 0 -- -- 16
2020-07-02 15:00:00 32.3 14 Noroeste 26 Norte 0 -- -- 17
2020-07-02 14:00:00 31.3 10 Noroeste 27 Noroeste 0 -- -- 19
2020-07-02 13:00:00 30.5 12 Noroeste 23 Norte 0 -- -- 21
2020-07-02 12:00:00 29.3 7 Noroeste 12 Noroeste 0 -- -- 25
2020-07-02 11:00:00 27.5 3 Noroeste 9 Norte 0 -- -- 30
2020-07-02 10:00:00 25.4 4 Nordeste 10 Nordeste 0 -- -- 32
2020-07-02 09:00:00 23.5 5 Nordeste 8 Nordeste 0 -- -- 34
2020-07-02 08:00:00 21.3 4 Este 12 Sudeste 0 -- -- 38
2020-07-02 07:00:00 20.5 7 Este 10 Este 0 -- -- 45
2020-07-02 06:00:00 19.7 5 Sudeste 10 Nordeste 0 -- -- 48
2020-07-02 05:00:00 20.5 4 Nordeste 16 Noroeste 0 -- -- 43
2020-07-02 04:00:00 22.5 3 Noroeste 4 Norte 0 -- -- 35
2020-07-02 03:00:00 23.5 3 Norte 9 Nordeste 0 -- -- 33
2020-07-02 02:00:00 24 6 Nordeste 9 Norte 0 -- -- 32
2020-07-02 01:00:00 26.1 4 Este 9 Nordeste 0 -- -- 29
2020-07-02 00:00:00 26.6 5 Sur 7 Sur 0 -- -- 27
2020-07-01 23:00:00 27.9 0 Calma 17 Oeste 0 -- -- 25
2020-07-01 22:00:00 29.6 12 Oeste 23 Noroeste 0 -- -- 20
2020-07-01 21:00:00 32.1 16 Noroeste 25 Oeste 0 -- -- 14
2020-07-01 20:00:00 34.1 13 Noroeste 27 Oeste 0 -- -- 9
2020-07-01 19:00:00 35.2 10 Oeste 27 Noroeste 0 -- -- 8
2020-07-01 18:00:00 35.1 12 Noroeste 29 Noroeste 0 -- -- 8
2020-07-01 17:00:00 34.8 10 Noroeste 22 Oeste 0 -- -- 11
2020-07-01 16:00:00 33.6 14 Noroeste 25 Noroeste 0 -- -- 14
2020-07-01 15:00:00 33.3 13 Oeste 26 Norte 0 -- -- 17
2020-07-01 14:00:00 32.3 8 Oeste 22 Oeste 0 -- -- 18
2020-07-01 13:00:00 31.4 9 Noroeste 15 Noroeste 0 -- -- 21
2020-07-01 12:00:00 29.8 5 Oeste 11 Oeste 0 -- -- 27
2020-07-01 11:00:00 27.7 3 Noroeste 8 Noroeste 0 -- -- 32
2020-07-01 10:00:00 25.6 2 Este 9 Nordeste 0 -- -- 38
2020-07-01 09:00:00 23.2 5 Nordeste 8 Nordeste 0 -- -- 48
2020-07-01 08:00:00 21.1 4 Este 9 Este 0 -- -- 54
2020-07-01 07:00:00 19.9 7 Este 9 Este 0 -- -- 56
2020-07-01 06:00:00 19.9 5 Este 8 Este 0 -- -- 56
2020-07-01 05:00:00 20.2 5 Este 10 Nordeste 0 -- -- 54
2020-07-01 04:00:00 20.7 5 Norte 9 Noroeste 0 -- -- 52
2020-07-01 03:00:00 21.8 6 Noroeste 9 Noroeste 0 -- -- 51
2020-07-01 02:00:00 23.5 4 Oeste 10 Noroeste 0 -- -- 46
2020-07-01 01:00:00 24.6 6 Noroeste 11 Noroeste 0 -- -- 44
2020-07-01 00:00:00 26.3 2 Norte 13 Noroeste 0 -- -- 42
2020-06-30 23:00:00 27.2 9 Noroeste 19 Oeste 0 -- -- 41
2020-06-30 22:00:00 29.5 13 Oeste 31 Oeste 0 -- -- 34
2020-06-30 21:00:00 32.6 23 Oeste 33 Noroeste 0 -- -- 26
2020-06-30 20:00:00 35.5 11 Sudoeste 23 Sudoeste 0 -- -- 14
2020-06-30 19:00:00 36.3 12 Sur 32 Sur 0 -- -- 11
2020-06-30 18:00:00 36.5 12 Sudoeste 24 Sur 0 -- -- 10
2020-06-30 17:00:00 36.2 14 Sur 33 Sudoeste 0 -- -- 10
2020-06-30 16:00:00 35.7 23 Sudoeste 37 Sur 0 -- -- 10
2020-06-30 15:00:00 35 15 Sudoeste 26 Sudoeste 0 -- -- 12
2020-06-30 14:00:00 34.3 17 Sur 25 Sur 0 -- -- 13
2020-06-30 13:00:00 32.6 10 Noroeste 18 Noroeste 0 -- -- 14
2020-06-30 12:00:00 30.6 2 Norte 9 Oeste 0 -- -- 16
2020-06-30 11:00:00 28.6 4 Nordeste 9 Nordeste 0 -- -- 19
2020-06-30 10:00:00 25.8 5 Nordeste 9 Este 0 -- -- 27
2020-06-30 09:00:00 24 0 Calma 9 Sudeste 0 -- -- 29
2020-06-30 08:00:00 21.9 6 Sudeste 10 Este 0 -- -- 29
2020-06-30 07:00:00 21.7 7 Este 10 Este 0 -- -- 29
2020-06-30 06:00:00 21.2 5 Noroeste 9 Noroeste 0 -- -- 30
2020-06-30 05:00:00 21.3 5 Norte 10 Nordeste 0 -- -- 27
2020-06-30 04:00:00 23.7 6 Nordeste 11 Este 0 -- -- 23
2020-06-30 03:00:00 23.5 6 Este 13 Sudeste 0 -- -- 25
2020-06-30 02:00:00 24.1 7 Sudoeste 21 Sur 0 -- -- 23
2020-06-30 01:00:00 25.1 8 Sur 17 Sur 0 -- -- 21
2020-06-30 00:00:00 26.7 13 Sur 26 Sur 0 -- -- 18
2020-06-29 23:00:00 27.5 10 Sur 23 Sur 0 -- -- 13
2020-06-29 22:00:00 29.6 17 Sur 27 Sur 0 -- -- 13
2020-06-29 21:00:00 32.2 20 Sur 32 Sur 0 -- -- 12
2020-06-29 20:00:00 33.8 25 Sur 31 Sur 0 -- -- 10
2020-06-29 19:00:00 35.2 24 Sur 36 Sur 0 -- -- 8
2020-06-29 18:00:00 36.5 19 Sur 34 Sudoeste 0 -- -- 7
2020-06-29 17:00:00 36.9 18 Sudoeste 29 Sudoeste 0 -- -- 8
2020-06-29 16:00:00 36.7 12 Sur 31 Sudoeste 0 -- -- 8
2020-06-29 15:00:00 35.9 14 Sur 26 Sur 0 -- -- 10
2020-06-29 14:00:00 35.1 10 Sudoeste 19 Sur 0 -- -- 14
2020-06-29 13:00:00 33.5 7 Sudoeste 14 Sudoeste 0 -- -- 19
2020-06-29 12:00:00 31.5 6 Sudoeste 13 Sudoeste 0 -- -- 22
2020-06-29 11:00:00 29.7 3 Nordeste 8 Nordeste 0 -- -- 23
2020-06-29 10:00:00 26.7 4 Nordeste 10 Sur 0 -- -- 30
2020-06-29 09:00:00 24.5 5 Sur 8 Sur 0 -- -- 33
2020-06-29 08:00:00 22.7 3 Este 5 Nordeste 0 -- -- 34
2020-06-29 07:00:00 21.3 3 Nordeste 11 Sur 0 -- -- 35
2020-06-29 06:00:00 21.5 6 Sur 15 Sur 0 -- -- 34
2020-06-29 05:00:00 21.9 9 Sur 14 Sudeste 0 -- -- 33
2020-06-29 04:00:00 23 7 Sur 14 Sur 0 -- -- 32
2020-06-29 03:00:00 23 8 Sudeste 15 Sur 0 -- -- 31
2020-06-29 02:00:00 23.6 6 Sur 24 Sur 0 -- -- 30
2020-06-29 01:00:00 24.7 20 Sur 29 Sur 0 -- -- 27
2020-06-29 00:00:00 26.5 24 Sudoeste 33 Sudoeste 0 -- -- 24
2020-06-28 23:00:00 26.8 17 Sur 23 Sur 0 -- -- 24
2020-06-28 22:00:00 29.1 18 Sur 26 Sudoeste 0 -- -- 21
2020-06-28 21:00:00 32.3 16 Sur 24 Sudoeste 0 -- -- 17
2020-06-28 20:00:00 34.6 18 Sudoeste 27 Sur 0 -- -- 14
2020-06-28 19:00:00 36.2 8 Oeste 27 Noroeste 0 -- -- 13
2020-06-28 18:00:00 36.3 12 Noroeste 26 Noroeste 0 -- -- 11
2020-06-28 17:00:00 35.8 5 Norte 24 Oeste 0 -- -- 12
2020-06-28 16:00:00 35.5 8 Oeste 25 Sudoeste 0 -- -- 12
2020-06-28 15:00:00 34.7 9 Oeste 30 Noroeste 0 -- -- 14
2020-06-28 14:00:00 33.6 9 Oeste 18 Oeste 0 -- -- 14
2020-06-28 13:00:00 32.4 9 Sur 15 Sur 0 -- -- 18
2020-06-28 12:00:00 30 3 Oeste 11 Norte 0 -- -- 24
2020-06-28 11:00:00 28.2 3 Nordeste 9 Nordeste 0 -- -- 29
2020-06-28 10:00:00 25.7 5 Nordeste 9 Nordeste 0 -- -- 36
2020-06-28 09:00:00 22.4 6 Nordeste 12 Nordeste 0 -- -- 44
2020-06-28 08:00:00 21.3 4 Este 8 Nordeste 0 -- -- 46
2020-06-28 07:00:00 20.7 5 Nordeste 6 Nordeste 0 -- -- 47
2020-06-28 06:00:00 20.8 3 Norte 4 Nordeste 0 -- -- 44
2020-06-28 05:00:00 21.6 2 Este 6 Nordeste 0 -- -- 42
2020-06-28 04:00:00 23 3 Nordeste 8 Este 0 -- -- 40
2020-06-28 03:00:00 23.2 5 Este 6 Este 0 -- -- 41
2020-06-28 02:00:00 23.4 4 Este 9 Nordeste 0 -- -- 39
2020-06-28 01:00:00 23.9 7 Nordeste 11 Norte 0 -- -- 36
2020-06-28 00:00:00 25 3 Noroeste 18 Oeste 0 -- -- 31
2020-06-27 23:00:00 25.8 9 Sudoeste 13 Sudoeste 0 -- -- 26
2020-06-27 22:00:00 28.4 6 Oeste 14 Noroeste 0 -- -- 20
2020-06-27 21:00:00 30.7 10 Noroeste 21 Noroeste 0 -- -- 17
2020-06-27 20:00:00 31.5 12 Noroeste 21 Noroeste 0 -- -- 15
2020-06-27 19:00:00 31.9 10 Noroeste 22 Oeste 0 -- -- 14
2020-06-27 18:00:00 32.2 12 Oeste 23 Oeste 0 -- -- 14
2020-06-27 17:00:00 31.6 16 Oeste 26 Oeste 0 -- -- 13
2020-06-27 16:00:00 30.8 8 Noroeste 29 Noroeste 0 -- -- 16
2020-06-27 15:00:00 29.7 12 Noroeste 23 Oeste 0 -- -- 16
2020-06-27 14:00:00 29.1 13 Noroeste 25 Noroeste 0 -- -- 19
2020-06-27 13:00:00 27.8 13 Noroeste 22 Noroeste 0 -- -- 22
2020-06-27 12:00:00 26.4 7 Noroeste 15 Oeste 0 -- -- 31
2020-06-27 11:00:00 23.8 6 Noroeste 13 Norte 0 -- -- 36
2020-06-27 10:00:00 22 4 Noroeste 11 Oeste 0 -- -- 40
2020-06-27 09:00:00 20.6 4 Norte 8 Norte 0 -- -- 42
2020-06-27 08:00:00 19 4 Nordeste 9 Este 0 -- -- 45
2020-06-27 07:00:00 17.6 8 Este 10 Nordeste 0 -- -- 48
2020-06-27 06:00:00 18 5 Este 10 Nordeste 0 -- -- 47
2020-06-27 05:00:00 18.3 6 Este 9 Este 0 -- -- 47
2020-06-27 04:00:00 18.7 0 Calma 6 Norte 0 -- -- 46
2020-06-27 03:00:00 19.5 3 Nordeste 8 Nordeste 0 -- -- 46
2020-06-27 02:00:00 20.2 4 Norte 8 Nordeste 0 -- -- 43
2020-06-27 01:00:00 21.1 4 Nordeste 12 Sudoeste 0 -- -- 35
2020-06-27 00:00:00 21.5 10 Oeste 21 Oeste 0 -- -- 33
2020-06-26 23:00:00 23.4 13 Oeste 21 Oeste 0 -- -- 28
2020-06-26 22:00:00 25.4 11 Oeste 23 Oeste 0 -- -- 26
2020-06-26 21:00:00 27.8 13 Oeste 32 Oeste 0 -- -- 19
2020-06-26 20:00:00 28.7 17 Oeste 35 Noroeste 0 -- -- 20
2020-06-26 19:00:00 29.7 16 Oeste 33 Oeste 0 -- -- 21
2020-06-26 18:00:00 30.1 14 Oeste 28 Oeste 0 -- -- 25
2020-06-26 17:00:00 29.3 13 Noroeste 30 Noroeste 0 -- -- 28
2020-06-26 16:00:00 28.6 18 Noroeste 31 Noroeste 0 -- -- 30
2020-06-26 15:00:00 27.4 11 Oeste 28 Oeste 0 -- -- 37
2020-06-26 14:00:00 25.9 10 Noroeste 23 Oeste 0 -- -- 43
2020-06-26 13:00:00 24.5 11 Noroeste 24 Oeste 0 -- -- 48
2020-06-26 12:00:00 22.9 13 Noroeste 22 Noroeste 0 -- -- 53
2020-06-26 11:00:00 21.4 5 Noroeste 10 Norte 0 -- -- 59
2020-06-26 10:00:00 19.5 4 Noroeste 11 Noroeste 0 -- -- 70
2020-06-26 09:00:00 18.7 3 Norte 8 Norte 0 -- -- 75
2020-06-26 08:00:00 17.9 6 Noroeste 12 Noroeste 0 -- -- 82
2020-06-26 07:00:00 17.5 7 Norte 14 Noroeste 0 -- -- 83
2020-06-26 06:00:00 17.2 4 Norte 12 Norte 0 -- -- 82
2020-06-26 05:00:00 17.7 7 Norte 13 Noroeste 0 -- -- 78
2020-06-26 04:00:00 18.6 7 Noroeste 12 Norte 0 -- -- 72
2020-06-26 03:00:00 19.4 6 Norte 12 Noroeste 0 -- -- 68
2020-06-26 02:00:00 20.3 6 Norte 10 Norte 0 -- -- 64
2020-06-26 01:00:00 21.3 5 Norte 10 Noroeste 0 -- -- 60
2020-06-26 00:00:00 22.3 6 Noroeste 15 Oeste 0 -- -- 57
2020-06-25 23:00:00 23.7 9 Noroeste 27 Noroeste 0 -- -- 52
2020-06-25 22:00:00 25.6 15 Oeste 30 Oeste 0 -- -- 46
2020-06-25 21:00:00 28.4 20 Oeste 32 Oeste 0 -- -- 37
2020-06-25 20:00:00 31 18 Noroeste 30 Oeste 0 -- -- 29
2020-06-25 19:00:00 32.7 15 Noroeste 27 Noroeste 0 -- -- 21
2020-06-25 18:00:00 33.3 14 Noroeste 26 Oeste 0 -- -- 19
2020-06-25 17:00:00 33.1 17 Noroeste 28 Noroeste 0 -- -- 19
2020-06-25 16:00:00 33.1 16 Sudoeste 31 Sudoeste 0 -- -- 11
2020-06-25 15:00:00 33 8 Oeste 20 Oeste 0 -- -- 15
2020-06-25 14:00:00 31 8 Noroeste 18 Oeste 0 -- -- 21
2020-06-25 13:00:00 29.9 4 Noroeste 15 Sudoeste 0 -- -- 22
2020-06-25 12:00:00 27.1 5 Noroeste 12 Oeste 0 -- -- 28
2020-06-25 11:00:00 25.3 6 Norte 12 Oeste 0 -- -- 33
2020-06-25 10:00:00 23.6 6 Noroeste 9 Noroeste 0 -- -- 39
2020-06-25 09:00:00 21.9 4 Nordeste 8 Nordeste 0 -- -- 37
2020-06-25 08:00:00 19.9 4 Este 8 Nordeste 0 -- -- 41
2020-06-25 07:00:00 18.3 5 Nordeste 9 Nordeste 0 -- -- 45
2020-06-25 06:00:00 19.3 6 Este 10 Este 0 -- -- 42
2020-06-25 05:00:00 19.2 0 Calma 8 Sudoeste 0 -- -- 40
2020-06-25 04:00:00 20.1 5 Sudoeste 13 Sur 0 -- -- 38
2020-06-25 03:00:00 21.2 5 Sudeste 8 Este 0 -- -- 37
2020-06-25 02:00:00 21.7 0 Calma 12 Sudoeste 0 -- -- 35
2020-06-25 01:00:00 22.4 7 Sur 15 Sur 0 -- -- 33
2020-06-25 00:00:00 23.2 10 Sur 18 Sudoeste 0 -- -- 32
2020-06-24 23:00:00 24.7 5 Sudoeste 29 Sur 0 -- -- 30
2020-06-24 22:00:00 26.3 22 Sur 30 Sudoeste 0 -- -- 27
2020-06-24 21:00:00 29.4 21 Sudoeste 31 Sudoeste 0 -- -- 20
2020-06-24 20:00:00 31.7 18 Sudoeste 31 Sudoeste 0 -- -- 17
2020-06-24 19:00:00 33.3 18 Sudoeste 32 Sudoeste 0 -- -- 16
2020-06-24 18:00:00 33.6 17 Sudoeste 31 Sudoeste 0 -- -- 17
2020-06-24 17:00:00 33.1 21 Sudoeste 33 Sudoeste 0 -- -- 17
2020-06-24 16:00:00 33.7 17 Sudoeste 30 Sudoeste 0 -- -- 17
2020-06-24 15:00:00 33.3 11 Sudoeste 30 Sudoeste 0 -- -- 17
2020-06-24 14:00:00 33.5 9 Sudoeste 20 Sur 0 -- -- 15
2020-06-24 13:00:00 31.6 9 Oeste 18 Oeste 0 -- -- 18
2020-06-24 12:00:00 29.9 5 Nordeste 10 Sudoeste 0 -- -- 20
2020-06-24 11:00:00 28.1 4 Norte 9 Norte 0 -- -- 26
2020-06-24 10:00:00 26.2 2 Nordeste 9 Sur 0 -- -- 32
2020-06-24 09:00:00 22.3 6 Sur 12 Sur 0 -- -- 42
2020-06-24 08:00:00 20.5 5 Sudeste 9 Sur 0 -- -- 45
2020-06-24 07:00:00 19.9 5 Sudeste 8 Este 0 -- -- 43
2020-06-24 06:00:00 20.3 9 Sudeste 12 Sudeste 0 -- -- 42
2020-06-24 05:00:00 21.2 6 Sudeste 12 Este 0 -- -- 38
2020-06-24 04:00:00 21.4 8 Sur 10 Sur 0 -- -- 40
2020-06-24 03:00:00 21.7 4 Sur 11 Noroeste 0 -- -- 39
2020-06-24 02:00:00 23.3 5 Norte 17 Sudoeste 0 -- -- 34
2020-06-24 01:00:00 24.1 12 Sudoeste 31 Sudoeste 0 -- -- 32
2020-06-24 00:00:00 24.9 21 Sudeste 37 Sur 0 -- -- 29
2020-06-23 23:00:00 24.9 31 Sur 42 Sur 0 -- -- 30
2020-06-23 22:00:00 26.6 26 Sur 35 Sur 0 -- -- 25
2020-06-23 21:00:00 29.6 22 Sur 32 Sudoeste 0 -- -- 19
2020-06-23 20:00:00 32.5 21 Sudoeste 33 Sudoeste 0 -- -- 16
2020-06-23 19:00:00 33.4 25 Sur 42 Sur 0 -- -- 11
2020-06-23 18:00:00 33.7 28 Sur 51 Sur 0 -- -- 13
2020-06-23 17:00:00 34.9 36 Sur 50 Sudoeste 0 -- -- 9
2020-06-23 16:00:00 34.8 32 Sur 49 Sudoeste 0 -- -- 9
2020-06-23 15:00:00 35.4 29 Sur 45 Sur 0 -- -- 9
2020-06-23 14:00:00 35.1 26 Sur 43 Sur 0 -- -- 9
2020-06-23 13:00:00 33.8 9 Norte 17 Norte 0 -- -- 12
2020-06-23 12:00:00 32 5 Nordeste 13 Nordeste 0 -- -- 15
2020-06-23 11:00:00 30.8 3 Norte 9 Noroeste 0 -- -- 16
2020-06-23 10:00:00 28.7 2 Noroeste 6 Este 0 -- -- 20
2020-06-23 09:00:00 25.9 3 Sudeste 6 Sudeste 0 -- -- 24
2020-06-23 08:00:00 23 0 Calma 6 Este 0 -- -- 27
2020-06-23 07:00:00 21.7 0 Calma 14 Sudeste 0 -- -- 32
2020-06-23 06:00:00 21.5 11 Sudeste 17 Sudeste 0 -- -- 33
2020-06-23 05:00:00 21.3 8 Sur 17 Sur 0 -- -- 37
2020-06-23 04:00:00 21.4 11 Sur 19 Sur 0 -- -- 36
2020-06-23 03:00:00 22.8 12 Sur 19 Sur 0 -- -- 32
2020-06-23 02:00:00 22.9 14 Sur 21 Sur 0 -- -- 31
2020-06-23 01:00:00 23.8 16 Sur 22 Sur 0 -- -- 28
2020-06-23 00:00:00 25 14 Sur 20 Sur 0 -- -- 24
2020-06-22 23:00:00 26 16 Sur 26 Sur 0 -- -- 21
2020-06-22 22:00:00 28.4 21 Sur 35 Sur 0 -- -- 16
2020-06-22 21:00:00 30.9 23 Sur 39 Sur 0 -- -- 12
2020-06-22 20:00:00 32.8 28 Sur 46 Sur 0 -- -- 9
2020-06-22 19:00:00 33.7 34 Sur 48 Sur 0 -- -- 8
2020-06-22 18:00:00 34.5 33 Sur 48 Sur 0 -- -- 8
2020-06-22 17:00:00 34.8 31 Sur 52 Sur 0 -- -- 8
2020-06-22 16:00:00 34.6 30 Sur 48 Sur 0 -- -- 8
2020-06-22 15:00:00 34.7 22 Sur 41 Sudeste 0 -- -- 9
2020-06-22 14:00:00 33.9 25 Sur 42 Sur 0 -- -- 8
2020-06-22 13:00:00 34 24 Sur 37 Sur 0 -- -- 9
2020-06-22 12:00:00 32.9 6 Sur 23 Sur 0 -- -- 11
2020-06-22 11:00:00 30.2 8 Nordeste 14 Nordeste 0 -- -- 17
2020-06-22 10:00:00 26.5 10 Nordeste 14 Nordeste 0 -- -- 24
2020-06-22 09:00:00 23.8 9 Nordeste 13 Nordeste 0 -- -- 28
2020-06-22 08:00:00 21.4 10 Nordeste 13 Nordeste 0 -- -- 32
2020-06-22 07:00:00 20.1 11 Nordeste 15 Nordeste 0 -- -- 34
2020-06-22 06:00:00 20.7 6 Este 14 Sudeste 0 -- -- 31
2020-06-22 05:00:00 22.3 5 Sudeste 10 Sur 0 -- -- 29
2020-06-22 04:00:00 22.6 6 Sudeste 14 Sudeste 0 -- -- 30
2020-06-22 03:00:00 23.3 5 Sudeste 12 Sur 0 -- -- 26
2020-06-22 02:00:00 24 8 Sur 20 Sur 0 -- -- 25
2020-06-22 01:00:00 24.8 15 Sur 21 Sur 0 -- -- 24
2020-06-22 00:00:00 25.7 12 Sur 15 Sur 0 -- -- 22
2020-06-21 23:00:00 28.1 10 Sur 13 Sur 0 -- -- 15
2020-06-21 22:00:00 30.6 6 Noroeste 13 Noroeste 0 -- -- 9
2020-06-21 21:00:00 33.6 8 Norte 15 Oeste 0 -- -- 8
2020-06-21 20:00:00 34.8 8 Noroeste 32 Oeste 0 -- -- 7
2020-06-21 19:00:00 35.5 10 Noroeste 23 Oeste 0 -- -- 6
2020-06-21 18:00:00 35.7 10 Oeste 27 Oeste 0 -- -- 7
2020-06-21 17:00:00 35.4 10 Oeste 23 Noroeste 0 -- -- 8
2020-06-21 16:00:00 35 10 Noroeste 22 Oeste 0 -- -- 8
2020-06-21 15:00:00 34 10 Oeste 28 Noroeste 0 -- -- 10
2020-06-21 14:00:00 33.2 9 Oeste 23 Noroeste 0 -- -- 11
2020-06-21 13:00:00 31.7 10 Oeste 25 Norte 0 -- -- 15
2020-06-21 12:00:00 29.8 5 Norte 12 Noroeste 0 -- -- 18
2020-06-21 11:00:00 27.3 5 Nordeste 10 Nordeste 0 -- -- 22
2020-06-21 10:00:00 24.3 6 Nordeste 10 Nordeste 0 -- -- 27
2020-06-21 09:00:00 21.6 5 Nordeste 9 Nordeste 0 -- -- 34
2020-06-21 08:00:00 20 3 Este 9 Este 0 -- -- 34
2020-06-21 07:00:00 19.2 5 Nordeste 10 Este 0 -- -- 35
2020-06-21 06:00:00 20.2 7 Este 9 Este 0 -- -- 32
2020-06-21 05:00:00 21.4 4 Este 9 Sudeste 0 -- -- 30
2020-06-21 04:00:00 21.8 5 Sudeste 9 Sur 0 -- -- 32
2020-06-21 03:00:00 23 5 Sudeste 9 Sudeste 0 -- -- 28
2020-06-21 02:00:00 23.5 4 Este 5 Nordeste 0 -- -- 27
2020-06-21 01:00:00 22.5 4 Sudoeste 17 Sur 0 -- -- 31
2020-06-21 00:00:00 23.6 11 Sur 16 Sur 0 -- -- 28
2020-06-20 23:00:00 25.2 11 Sur 15 Sur 0 -- -- 23
2020-06-20 22:00:00 28.3 6 Sudoeste 13 Oeste 0 -- -- 17
2020-06-20 21:00:00 31.7 9 Oeste 19 Noroeste 0 -- -- 12
2020-06-20 20:00:00 32.8 10 Noroeste 22 Oeste 0 -- -- 11
2020-06-20 19:00:00 33.2 6 Sudoeste 26 Sudoeste 0 -- -- 7
2020-06-20 18:00:00 33.3 8 Sudoeste 27 Sudoeste 0 -- -- 6
2020-06-20 17:00:00 32.7 10 Sur 29 Sudoeste 0 -- -- 11
2020-06-20 16:00:00 32.3 17 Sudoeste 28 Sudoeste 0 -- -- 14
2020-06-20 15:00:00 32 9 Oeste 20 Sudoeste 0 -- -- 15
2020-06-20 14:00:00 30.9 9 Sudoeste 28 Sudoeste 0 -- -- 17
2020-06-20 13:00:00 29.9 6 Oeste 18 Sudoeste 0 -- -- 21
2020-06-20 12:00:00 28.3 6 Sudoeste 13 Nordeste 0 -- -- 24
2020-06-20 11:00:00 26.1 6 Norte 12 Nordeste 0 -- -- 27
2020-06-20 10:00:00 23.2 5 Norte 12 Nordeste 0 -- -- 36
2020-06-20 09:00:00 20.5 6 Nordeste 10 Nordeste 0 -- -- 43
2020-06-20 08:00:00 18.7 4 Este 13 Sur 0 -- -- 47
2020-06-20 07:00:00 17.4 8 Sudeste 12 Sudeste 0 -- -- 49
2020-06-20 06:00:00 18.2 0 Calma 6 Este 0 -- -- 49
2020-06-20 05:00:00 18.9 3 Este 8 Este 0 -- -- 47
2020-06-20 04:00:00 19.3 4 Nordeste 8 Este 0 -- -- 43
2020-06-20 03:00:00 20.1 6 Este 13 Sudeste 0 -- -- 41
2020-06-20 02:00:00 20.5 11 Sur 15 Sur 0 -- -- 39
2020-06-20 01:00:00 20.9 10 Sudeste 14 Sur 0 -- -- 38
2020-06-20 00:00:00 21.4 9 Sur 15 Sudoeste 0 -- -- 37
2020-06-19 23:00:00 23.7 8 Oeste 22 Oeste 0 -- -- 33
2020-06-19 22:00:00 25.2 14 Noroeste 24 Noroeste 0 -- -- 27
2020-06-19 21:00:00 27.5 14 Noroeste 22 Noroeste 0 -- -- 23
2020-06-19 20:00:00 29 13 Noroeste 23 Noroeste 0 -- -- 19
2020-06-19 19:00:00 29.5 15 Noroeste 22 Oeste 0 -- -- 19
2020-06-19 18:00:00 29.7 7 Noroeste 26 Oeste 0 -- -- 20
2020-06-19 17:00:00 29.2 12 Oeste 27 Noroeste 0 -- -- 20
2020-06-19 16:00:00 28.4 10 Oeste 26 Oeste 0 -- -- 22
2020-06-19 15:00:00 27.4 5 Norte 23 Oeste 0 -- -- 24
2020-06-19 14:00:00 26.3 10 Noroeste 23 Noroeste 0 -- -- 29
2020-06-19 13:00:00 25 8 Noroeste 17 Oeste 0 -- -- 32
2020-06-19 12:00:00 23.1 6 Oeste 16 Oeste 0 -- -- 36
2020-06-19 11:00:00 21.5 9 Noroeste 17 Noroeste 0 -- -- 41
2020-06-19 10:00:00 20.8 4 Nordeste 10 Nordeste 0 -- -- 34
2020-06-19 09:00:00 19.2 5 Nordeste 8 Nordeste 0 -- -- 34
2020-06-19 08:00:00 18 2 Este 5 Norte 0 -- -- 41
2020-06-19 07:00:00 15.6 0 Calma 6 Sur 0 -- -- 42
2020-06-19 06:00:00 15.6 3 Sur 9 Nordeste 0 -- -- 43
2020-06-19 05:00:00 16.4 6 Este 9 Este 0 -- -- 46
2020-06-19 04:00:00 16.7 4 Nordeste 9 Norte 0 -- -- 49
2020-06-19 03:00:00 17.2 6 Norte 13 Nordeste 0 -- -- 47
2020-06-19 02:00:00 18.4 8 Norte 13 Norte 0 -- -- 40
2020-06-19 01:00:00 19.5 9 Oeste 13 Oeste 0 -- -- 30
2020-06-19 00:00:00 20.4 3 Norte 13 Sudoeste 0 -- -- 26
2020-06-18 23:00:00 21.8 4 Sudoeste 23 Oeste 0 -- -- 22
2020-06-18 22:00:00 23.7 15 Oeste 29 Noroeste 0 -- -- 18
2020-06-18 21:00:00 26 19 Oeste 34 Oeste 0 -- -- 16
2020-06-18 20:00:00 26.9 18 Noroeste 35 Noroeste 0 -- -- 21
2020-06-18 19:00:00 29.3 17 Oeste 35 Oeste 0 -- -- 18
2020-06-18 18:00:00 29.6 16 Noroeste 33 Oeste 0 -- -- 16
2020-06-18 17:00:00 29.7 12 Oeste 29 Oeste 0 -- -- 16
2020-06-18 16:00:00 28.8 9 Noroeste 30 Oeste 0 -- -- 17
2020-06-18 15:00:00 28.4 14 Oeste 27 Oeste 0 -- -- 17
2020-06-18 14:00:00 27.2 11 Noroeste 27 Noroeste 0 -- -- 23
2020-06-18 13:00:00 26.1 7 Noroeste 17 Noroeste 0 -- -- 25
2020-06-18 12:00:00 24.4 5 Noroeste 14 Oeste 0 -- -- 31
2020-06-18 11:00:00 22.4 7 Noroeste 15 Noroeste 0 -- -- 38
2020-06-18 10:00:00 20.7 8 Noroeste 14 Noroeste 0 -- -- 42
2020-06-18 09:00:00 18.8 7 Oeste 16 Sudeste 0 -- -- 47
2020-06-18 08:00:00 18.1 11 Sudeste 16 Sudeste 0 -- -- 49
2020-06-18 07:00:00 16.1 4 Nordeste 9 Este 0 -- -- 53
2020-06-18 06:00:00 16.6 6 Nordeste 7 Este 0 -- -- 52
2020-06-18 05:00:00 17.2 4 Sudeste 9 Sudeste 0 -- -- 49
2020-06-18 04:00:00 17.5 9 Sur 15 Sur 0 -- -- 49
2020-06-18 03:00:00 18.1 8 Sur 13 Sudoeste 0 -- -- 47
2020-06-18 02:00:00 19.4 6 Sudoeste 12 Oeste 0 -- -- 42
2020-06-18 01:00:00 20.5 6 Sur 21 Oeste 0 -- -- 41
2020-06-18 00:00:00 21.6 13 Oeste 20 Oeste 0 -- -- 39
2020-06-17 23:00:00 22.7 13 Sudoeste 25 Sudoeste 0 -- -- 35
2020-06-17 22:00:00 24.1 10 Sudoeste 25 Oeste 0 -- -- 28
2020-06-17 21:00:00 26.4 16 Oeste 27 Oeste 0 -- -- 22
2020-06-17 20:00:00 27.5 15 Oeste 33 Noroeste 0 -- -- 21
2020-06-17 19:00:00 28.2 14 Oeste 31 Oeste 0 -- -- 21
2020-06-17 18:00:00 28.2 14 Oeste 28 Noroeste 0 -- -- 21
2020-06-17 17:00:00 27.7 18 Oeste 32 Noroeste 0 -- -- 22
2020-06-17 16:00:00 27.6 15 Oeste 36 Noroeste 0 -- -- 22
2020-06-17 15:00:00 27 13 Noroeste 30 Oeste 0 -- -- 25
2020-06-17 14:00:00 25.9 11 Oeste 24 Oeste 0 -- -- 29
2020-06-17 13:00:00 24.7 8 Oeste 22 Oeste 0 -- -- 37
2020-06-17 12:00:00 23.1 11 Oeste 19 Oeste 0 -- -- 41
2020-06-17 11:00:00 21.7 7 Oeste 13 Oeste 0 -- -- 49
2020-06-17 10:00:00 20.1 4 Oeste 12 Noroeste 0 -- -- 55
2020-06-17 09:00:00 19.1 5 Noroeste 13 Norte 0 -- -- 59
2020-06-17 08:00:00 18.4 3 Nordeste 7 Nordeste 0 -- -- 65
2020-06-17 07:00:00 16.5 4 Este 8 Nordeste 0 -- -- 71
2020-06-17 06:00:00 15.9 5 Nordeste 8 Nordeste 0 -- -- 73
2020-06-17 05:00:00 17 3 Nordeste 8 Este 0 -- -- 67
2020-06-17 04:00:00 17.6 3 Nordeste 5 Nordeste 0 -- -- 64
2020-06-17 03:00:00 17.9 3 Norte 9 Oeste 0 -- -- 62
2020-06-17 02:00:00 18.6 5 Oeste 12 Sudoeste 0 -- -- 59
2020-06-17 01:00:00 19.4 5 Sudoeste 18 Oeste 0 -- -- 58
2020-06-17 00:00:00 20 10 Sudoeste 21 Oeste 0 -- -- 54
2020-06-16 23:00:00 21.2 8 Oeste 23 Sudoeste 0 -- -- 51
2020-06-16 22:00:00 22.6 14 Oeste 36 Oeste 0 -- -- 44
2020-06-16 21:00:00 24.5 23 Oeste 41 Oeste 0 -- -- 36
2020-06-16 20:00:00 25.4 22 Oeste 40 Oeste 0 -- -- 33
2020-06-16 19:00:00 26.2 22 Oeste 39 Oeste 0 -- -- 28
2020-06-16 18:00:00 27.7 21 Oeste 46 Oeste 0 -- -- 20
2020-06-16 17:00:00 27.3 21 Oeste 41 Noroeste 0 -- -- 21
2020-06-16 16:00:00 26.7 26 Oeste 41 Oeste 0 -- -- 20
2020-06-16 15:00:00 26.5 14 Oeste 36 Noroeste 0 -- -- 19
2020-06-16 14:00:00 25.1 16 Oeste 35 Oeste 0 -- -- 23
2020-06-16 13:00:00 23.9 12 Noroeste 24 Noroeste 0 -- -- 29
2020-06-16 12:00:00 22.7 11 Noroeste 33 Noroeste 0 -- -- 34
2020-06-16 11:00:00 21.2 7 Noroeste 16 Norte 0 -- -- 39
2020-06-16 10:00:00 19.7 9 Noroeste 14 Noroeste 0 -- -- 42
2020-06-16 09:00:00 19 2 Nordeste 8 Este 0 -- -- 44
2020-06-16 08:00:00 17.3 3 Este 8 Este 0 -- -- 47
2020-06-16 07:00:00 15.9 5 Nordeste 7 Nordeste 0 -- -- 49
2020-06-16 06:00:00 16.4 4 Nordeste 8 Este 0 -- -- 49
2020-06-16 05:00:00 16.7 5 Este 10 Este 0 -- -- 47
2020-06-16 04:00:00 16.5 4 Este 6 Este 0 -- -- 48
2020-06-16 03:00:00 16.7 4 Nordeste 10 Nordeste 0 -- -- 49
2020-06-16 02:00:00 17.1 5 Nordeste 11 Nordeste 0 -- -- 47
2020-06-16 01:00:00 18.5 8 Norte 12 Norte 0 -- -- 42
2020-06-16 00:00:00 19.7 7 Noroeste 18 Oeste 0 -- -- 34
2020-06-15 23:00:00 21.1 12 Oeste 21 Oeste 0 -- -- 31
2020-06-15 22:00:00 23.4 15 Oeste 22 Oeste 0 -- -- 28
2020-06-15 21:00:00 25.6 14 Oeste 25 Oeste 0 -- -- 22
2020-06-15 20:00:00 27.3 12 Noroeste 25 Oeste 0 -- -- 18
2020-06-15 19:00:00 28.2 10 Oeste 26 Oeste 0 -- -- 17
2020-06-15 18:00:00 28.4 14 Noroeste 30 Noroeste 0 -- -- 18
2020-06-15 17:00:00 28.1 13 Noroeste 24 Noroeste 0 -- -- 18
2020-06-15 16:00:00 27.2 12 Oeste 30 Oeste 0 -- -- 20
2020-06-15 15:00:00 26.1 11 Noroeste 27 Noroeste 0 -- -- 21
2020-06-15 14:00:00 25.2 8 Noroeste 25 Noroeste 0 -- -- 24
2020-06-15 13:00:00 24.4 7 Noroeste 16 Norte 0 -- -- 29
2020-06-15 12:00:00 22.9 4 Nordeste 14 Noroeste 0 -- -- 33
2020-06-15 11:00:00 21 4 Norte 10 Este 0 -- -- 40
2020-06-15 10:00:00 18.9 3 Norte 10 Nordeste 0 -- -- 47
2020-06-15 09:00:00 17 5 Nordeste 10 Nordeste 0 -- -- 49
2020-06-15 08:00:00 15.9 3 Este 8 Nordeste 0 -- -- 51
2020-06-15 07:00:00 14.3 4 Este 9 Nordeste 0 -- -- 55
2020-06-15 06:00:00 14.3 4 Este 13 Este 0 -- -- 55
2020-06-15 05:00:00 14.9 10 Este 13 Este 0 -- -- 55
2020-06-15 04:00:00 14.9 8 Este 9 Sudeste 0 -- -- 56
2020-06-15 03:00:00 15.1 4 Nordeste 9 Norte 0 -- -- 56
2020-06-15 02:00:00 15.9 5 Nordeste 10 Norte 0 -- -- 49
2020-06-15 01:00:00 17.1 6 Norte 9 Norte 0 -- -- 44
2020-06-15 00:00:00 18.2 3 Sudoeste 17 Oeste 0 -- -- 38
2020-06-14 23:00:00 19.5 11 Oeste 29 Oeste 0 -- -- 34
2020-06-14 22:00:00 20.9 15 Oeste 28 Oeste 0 -- -- 32
2020-06-14 21:00:00 23.3 20 Oeste 37 Sudoeste 0 -- -- 28
2020-06-14 20:00:00 25.3 16 Oeste 37 Oeste 0 -- -- 20
2020-06-14 19:00:00 26 19 Noroeste 32 Oeste 0 -- -- 19
2020-06-14 18:00:00 26.7 19 Oeste 30 Noroeste 0 -- -- 18
2020-06-14 17:00:00 26.6 16 Oeste 29 Oeste 0 -- -- 18
2020-06-14 16:00:00 26.1 15 Oeste 30 Oeste 0 -- -- 18
2020-06-14 15:00:00 25.1 8 Oeste 26 Oeste 0 -- -- 22
2020-06-14 14:00:00 24 13 Oeste 24 Noroeste 0 -- -- 23
2020-06-14 13:00:00 22.8 10 Noroeste 23 Noroeste 0 -- -- 29
2020-06-14 12:00:00 21.3 6 Oeste 15 Noroeste 0 -- -- 35
2020-06-14 11:00:00 19.8 5 Oeste 13 Oeste 0 -- -- 36
2020-06-14 10:00:00 18.6 4 Noroeste 13 Noroeste 0 -- -- 39
2020-06-14 09:00:00 17.6 0 Calma 5 Noroeste 0 -- -- 40
2020-06-14 08:00:00 15.3 0 Calma 6 Sur 0 -- -- 48
2020-06-14 07:00:00 14.8 2 Este 6 Este 0 -- -- 46
2020-06-14 06:00:00 14.9 3 Este 12 Sudeste 0 -- -- 47
2020-06-14 05:00:00 15 0 Calma 6 Nordeste 0 -- -- 48
2020-06-14 04:00:00 15.2 5 Nordeste 13 Nordeste 0 -- -- 49
2020-06-14 03:00:00 16.1 4 Norte 12 Norte 0 -- -- 47
2020-06-14 02:00:00 16.4 8 Norte 13 Noroeste 0 -- -- 45
2020-06-14 01:00:00 17.1 7 Sudeste 11 Noroeste 0 -- -- 38
2020-06-14 00:00:00 18.4 9 Noroeste 19 Oeste 0 -- -- 36
2020-06-13 23:00:00 19.1 7 Noroeste 12 Oeste 0 -- -- 29
2020-06-13 22:00:00 20.4 7 Noroeste 22 Noroeste 0 -- -- 26
2020-06-13 21:00:00 22.2 13 Noroeste 26 Noroeste 0 -- -- 22
2020-06-13 20:00:00 23.9 14 Noroeste 26 Noroeste 0 -- -- 20
2020-06-13 19:00:00 24.6 12 Noroeste 31 Noroeste 0 -- -- 20
2020-06-13 18:00:00 24.5 10 Oeste 25 Noroeste 0 -- -- 21
2020-06-13 17:00:00 24 9 Noroeste 33 Oeste 0 -- -- 22
2020-06-13 16:00:00 23.2 14 Oeste 25 Noroeste 0 -- -- 25
2020-06-13 15:00:00 22.6 11 Oeste 26 Oeste 0 -- -- 29
2020-06-13 14:00:00 21.6 10 Oeste 25 Noroeste 0 -- -- 31
2020-06-13 13:00:00 20.2 5 Norte 16 Noroeste 0 -- -- 36
2020-06-13 12:00:00 19.5 6 Noroeste 14 Nordeste 0 -- -- 42
2020-06-13 11:00:00 16.7 4 Oeste 9 Oeste 0 -- -- 53
2020-06-13 10:00:00 16 3 Oeste 9 Oeste 0 -- -- 59
2020-06-13 09:00:00 14.4 7 Sudoeste 12 Sur 0 -- -- 65
2020-06-13 08:00:00 12.3 9 Sur 12 Sur 0 -- -- 73
2020-06-13 07:00:00 12.1 7 Sur 10 Sur 0 -- -- 72
2020-06-13 06:00:00 12.3 9 Sur 12 Sur 0 -- -- 69
2020-06-13 05:00:00 13.2 7 Sudeste 15 Sur 0 -- -- 64
2020-06-13 04:00:00 13.5 9 Sur 14 Sur 0 -- -- 63
2020-06-13 03:00:00 12.7 8 Sudoeste 12 Sudoeste 0 -- -- 64
2020-06-13 02:00:00 13.6 6 Sur 14 Sudoeste 0 -- -- 62
2020-06-13 01:00:00 14.3 9 Sudoeste 31 Sudoeste 0 -- -- 59
2020-06-13 00:00:00 15 19 Oeste 32 Oeste 0 -- -- 53
2020-06-12 23:00:00 16 16 Sudoeste 28 Sudoeste 0 -- -- 46
2020-06-12 22:00:00 17.3 15 Oeste 31 Oeste 0 -- -- 40
2020-06-12 21:00:00 19.1 22 Sudoeste 32 Oeste 0 -- -- 34
2020-06-12 20:00:00 19.5 24 Sudoeste 38 Oeste 0 -- -- 34
2020-06-12 19:00:00 19.9 16 Sudoeste 34 Oeste 0 -- -- 37
2020-06-12 18:00:00 20.2 18 Sudoeste 26 Oeste 0 -- -- 36
2020-06-12 17:00:00 19.7 16 Sudoeste 30 Oeste 0 -- -- 37
2020-06-12 16:00:00 19.2 12 Noroeste 26 Oeste 0 -- -- 38
2020-06-12 15:00:00 19 7 Oeste 26 Sudoeste 0 -- -- 39
2020-06-12 14:00:00 17.7 14 Oeste 24 Oeste 0 -- -- 44
2020-06-12 13:00:00 16.2 11 Oeste 22 Oeste 0 -- -- 53
2020-06-12 12:00:00 14.4 12 Sudoeste 22 Oeste 0 -- -- 65
2020-06-12 11:00:00 15.1 13 Oeste 21 Sudoeste 0 -- -- 61
2020-06-12 10:00:00 15 10 Oeste 22 Oeste 0 -- -- 61
2020-06-12 09:00:00 14.5 16 Oeste 25 Oeste 0 -- -- 67
2020-06-12 08:00:00 13.8 14 Sudoeste 21 Sur 0 -- -- 77
2020-06-12 07:00:00 13.9 12 Sudoeste 24 Sudoeste 0 -- -- 75
2020-06-12 06:00:00 14.2 18 Sudoeste 35 Sudoeste 0 -- -- 73
2020-06-12 05:00:00 15.4 23 Oeste 33 Oeste 0 -- -- 71
2020-06-12 04:00:00 15.5 12 Sudoeste 27 Oeste 0 -- -- 77
2020-06-12 03:00:00 15.5 19 Oeste 30 Sudoeste 0 -- -- 78
2020-06-12 02:00:00 15.4 22 Sudoeste 42 Sudoeste 0 -- -- 80
2020-06-12 01:00:00 16.9 28 Sudoeste 46 Sudoeste 0 -- -- 62
2020-06-12 00:00:00 17 32 Sudoeste 48 Sudoeste 0 -- -- 60
2020-06-11 23:00:00 16.8 23 Sudoeste 37 Sudoeste 0 -- -- 57
2020-06-11 22:00:00 17.8 17 Sudoeste 33 Sudoeste 0 -- -- 51
2020-06-11 21:00:00 19.3 20 Sudoeste 49 Oeste 0 -- -- 45
2020-06-11 20:00:00 20.7 35 Oeste 50 Oeste 0 -- -- 39
2020-06-11 19:00:00 22.2 33 Oeste 48 Sudoeste 0 -- -- 30
2020-06-11 18:00:00 23.9 22 Oeste 47 Oeste 0 -- -- 28
2020-06-11 17:00:00 23.8 30 Oeste 48 Oeste 0 -- -- 25
2020-06-11 16:00:00 24.2 24 Oeste 41 Oeste 0 -- -- 25
2020-06-11 15:00:00 23.7 23 Oeste 39 Oeste 0 -- -- 23
2020-06-11 14:00:00 23.2 21 Oeste 38 Oeste 0 -- -- 26
2020-06-11 13:00:00 22.5 14 Oeste 31 Oeste 0 -- -- 26
2020-06-11 12:00:00 21.6 10 Oeste 29 Sudoeste 0 -- -- 35
2020-06-11 11:00:00 20.6 12 Oeste 22 Oeste 0 -- -- 37
2020-06-11 10:00:00 19.3 6 Sudoeste 14 Sudoeste 0 -- -- 43
2020-06-11 09:00:00 18.3 0 Calma 5 Noroeste 0 -- -- 43
2020-06-11 08:00:00 15.4 4 Sudeste 10 Sur 0 -- -- 49
2020-06-11 07:00:00 13.7 8 Sur 11 Sur 0 -- -- 51
2020-06-11 06:00:00 13.5 8 Sur 12 Sur 0 -- -- 51
2020-06-11 05:00:00 14.4 9 Sur 15 Sur 0 -- -- 47
2020-06-11 04:00:00 14.7 14 Sur 18 Sur 0 -- -- 50
2020-06-11 03:00:00 16.8 8 Sudoeste 22 Sudoeste 0 -- -- 43
2020-06-11 02:00:00 17.6 11 Sudoeste 21 Oeste 0 -- -- 44
2020-06-11 01:00:00 19.2 5 Oeste 15 Oeste 0 -- -- 37
2020-06-11 00:00:00 20.2 9 Oeste 27 Sudoeste 0 -- -- 35
2020-06-10 23:00:00 21.1 18 Sudoeste 26 Sudoeste 0 -- -- 35
2020-06-10 22:00:00 22.3 15 Oeste 35 Oeste 0 -- -- 32
2020-06-10 21:00:00 24.5 22 Oeste 36 Oeste 0 -- -- 30
2020-06-10 20:00:00 26.8 19 Oeste 35 Oeste 0 -- -- 23
2020-06-10 19:00:00 28.1 14 Oeste 34 Oeste 0 -- -- 18
2020-06-10 18:00:00 28.7 18 Oeste 34 Oeste 0 -- -- 15
2020-06-10 17:00:00 28.5 8 Noroeste 29 Oeste 0 -- -- 16
2020-06-10 16:00:00 28.1 8 Sudoeste 24 Oeste 0 -- -- 16
2020-06-10 15:00:00 27.4 7 Sudoeste 21 Sudoeste 0 -- -- 17
2020-06-10 14:00:00 26.4 8 Sur 21 Sudoeste 0 -- -- 20
2020-06-10 13:00:00 25 5 Sur 13 Sudeste 0 -- -- 22
2020-06-10 12:00:00 23.3 5 Nordeste 9 Nordeste 0 -- -- 26
2020-06-10 11:00:00 22.4 2 Sudoeste 9 Oeste 0 -- -- 27
2020-06-10 10:00:00 20.8 5 Norte 11 Nordeste 0 -- -- 35
2020-06-10 09:00:00 17.9 6 Nordeste 13 Nordeste 0 -- -- 44
2020-06-10 08:00:00 16.2 7 Este 15 Este 0 -- -- 38
2020-06-10 07:00:00 14.8 10 Este 13 Sudeste 0 -- -- 43
2020-06-10 06:00:00 14.6 8 Sur 13 Sudeste 0 -- -- 50
2020-06-10 05:00:00 16.2 5 Sudeste 11 Este 0 -- -- 52
2020-06-10 04:00:00 16.4 4 Este 8 Sur 0 -- -- 45
2020-06-10 03:00:00 16.6 3 Sudeste 8 Norte 0 -- -- 51
2020-06-10 02:00:00 17.4 5 Norte 7 Norte 0 -- -- 52
2020-06-10 01:00:00 18.4 0 Calma 8 Noroeste 0 -- -- 48
2020-06-10 00:00:00 19.3 5 Sudoeste 22 Oeste 0 -- -- 44
2020-06-09 23:00:00 21 12 Oeste 29 Oeste 0 -- -- 39
2020-06-09 22:00:00 22.5 15 Oeste 24 Oeste 0 -- -- 26
2020-06-09 21:00:00 24.9 10 Oeste 23 Sudoeste 0 -- -- 20
2020-06-09 20:00:00 25.8 14 Oeste 26 Oeste 0 -- -- 18
2020-06-09 19:00:00 25.2 12 Noroeste 31 Oeste 0 -- -- 19
2020-06-09 18:00:00 26.2 14 Noroeste 31 Oeste 0 -- -- 18
2020-06-09 17:00:00 26.6 15 Noroeste 30 Noroeste 0 -- -- 18
2020-06-09 16:00:00 26 13 Oeste 28 Noroeste 0 -- -- 20
2020-06-09 15:00:00 24.6 12 Oeste 27 Noroeste 0 -- -- 24
2020-06-09 14:00:00 24.5 14 Noroeste 27 Noroeste 0 -- -- 27
2020-06-09 13:00:00 23.3 11 Oeste 21 Oeste 0 -- -- 31
2020-06-09 12:00:00 22 7 Noroeste 13 Noroeste 0 -- -- 33
2020-06-09 11:00:00 20.4 6 Oeste 10 Noroeste 0 -- -- 37
2020-06-09 10:00:00 18.9 5 Norte 8 Norte 0 -- -- 41
2020-06-09 09:00:00 17.3 2 Este 9 Nordeste 0 -- -- 46
2020-06-09 08:00:00 15.3 2 Este 6 Este 0 -- -- 52
2020-06-09 07:00:00 13.5 4 Este 7 Este 0 -- -- 56
2020-06-09 06:00:00 14 4 Este 10 Este 0 -- -- 56
2020-06-09 05:00:00 14.7 6 Este 13 Sudeste 0 -- -- 55
2020-06-09 04:00:00 14.9 7 Este 9 Este 0 -- -- 54
2020-06-09 03:00:00 15.1 4 Este 9 Nordeste 0 -- -- 54
2020-06-09 02:00:00 15.7 5 Nordeste 8 Norte 0 -- -- 51
2020-06-09 01:00:00 16.6 4 Noroeste 8 Sudoeste 0 -- -- 48
2020-06-09 00:00:00 17.5 3 Noroeste 23 Oeste 0 -- -- 44